Time;durP1;ratioP1;P1;durP2;ratioP2;P2;SDS_P1;SDS_P2;PMS_P1;PMS_P2;Temp;Humidity;BMP_temperature;BMP_pressure;BME280_temperature;BME280_humidity;BME280_pressure;Samples;Min_cycle;Max_cycle;Signal;HPM_P1;HPM_P2
2022/12/27 00:02:19;;;;;;;11.00;8.83;;;;;;;0.34;95.30;99823.66;1840849;76;21048;-73
2022/12/27 00:04:46;;;;;;;11.43;8.10;;;;;;;0.36;95.25;99825.70;1831370;78;20998;-72
2022/12/27 00:07:13;;;;;;;10.50;8.48;;;;;;;0.29;95.56;99814.83;1843229;77;21048;-70
2022/12/27 00:09:39;;;;;;;9.83;7.55;;;;;;;0.29;95.61;99805.69;1809401;77;21783;-71
2022/12/27 00:12:06;;;;;;;13.03;8.63;;;;;;;0.39;95.42;99803.30;1818588;78;21563;-70
2022/12/27 00:14:32;;;;;;;10.98;8.23;;;;;;;0.34;96.03;99799.66;1822685;78;21020;-70
2022/12/27 00:17:00;;;;;;;11.93;8.05;;;;;;;0.31;95.97;99822.09;1831760;77;20992;-71
2022/12/27 00:19:27;;;;;;;11.03;7.33;;;;;;;0.38;95.72;99805.05;1825651;78;21017;-71
2022/12/27 00:21:55;;;;;;;9.35;7.58;;;;;;;0.45;95.42;99804.67;1826686;77;21102;-71
2022/12/27 00:24:21;;;;;;;11.35;8.43;;;;;;;0.41;95.58;99801.42;1815535;78;21072;-71
2022/12/27 00:26:49;;;;;;;11.68;7.53;;;;;;;0.36;95.67;99806.94;1831775;78;21021;-72
2022/12/27 00:29:15;;;;;;;10.78;7.45;;;;;;;0.44;95.54;99807.73;1831754;77;21009;-71
2022/12/27 00:31:42;;;;;;;12.55;8.65;;;;;;;0.49;95.50;99794.38;1831837;78;20998;-71
2022/12/27 00:34:09;;;;;;;10.72;7.47;;;;;;;0.45;95.59;99787.68;1831842;77;21341;-72
2022/12/27 00:36:36;;;;;;;10.72;7.58;;;;;;;0.40;95.74;99772.29;1842082;77;21040;-69
2022/12/27 00:39:03;;;;;;;9.83;6.87;;;;;;;0.50;95.61;99779.05;1843233;77;20997;-71
2022/12/27 00:41:30;;;;;;;10.20;7.22;;;;;;;0.54;95.44;99785.73;1831748;78;21076;-70
2022/12/27 00:43:56;;;;;;;11.95;9.00;;;;;;;0.48;95.69;99763.94;1831674;78;20977;-69
2022/12/27 00:46:23;;;;;;;11.28;7.80;;;;;;;0.45;95.85;99774.14;1831576;78;21018;-70
2022/12/27 00:48:49;;;;;;;11.57;8.03;;;;;;;0.54;95.62;99762.20;1831555;78;21108;-70
2022/12/27 00:51:21;;;;;;;12.33;8.05;;;;;;;0.55;95.54;99762.11;1831633;77;21041;-67
2022/12/27 00:53:48;;;;;;;12.07;8.48;;;;;;;0.51;95.76;99752.80;1830481;78;21079;-69
2022/12/27 00:56:17;;;;;;;9.30;7.42;;;;;;;0.53;95.77;99754.84;1823071;78;21029;-70
2022/12/27 00:58:44;;;;;;;10.32;7.92;;;;;;;0.63;95.53;99754.23;1832123;77;21030;-71
2022/12/27 01:01:17;;;;;;;10.10;8.13;;;;;;;0.59;95.70;99777.95;1831752;78;21024;-68
2022/12/27 01:03:44;;;;;;;11.50;7.97;;;;;;;0.54;95.88;99752.61;1823082;77;21489;-70
2022/12/27 01:06:14;;;;;;;11.63;7.87;;;;;;;0.57;95.84;99748.46;1831666;78;21013;-70
2022/12/27 01:08:42;;;;;;;10.05;7.75;;;;;;;0.64;95.84;99749.34;1831669;78;20993;-69
2022/12/27 01:11:09;;;;;;;10.55;7.65;;;;;;;0.58;96.04;99757.17;1830362;78;21760;-69
2022/12/27 01:13:36;;;;;;;10.23;7.72;;;;;;;0.51;96.46;99750.19;1831534;78;21026;-69
2022/12/27 01:16:12;;;;;;;9.25;7.67;;;;;;;0.55;96.53;99762.11;1831800;78;21026;-69
2022/12/27 01:18:38;;;;;;;14.20;8.95;;;;;;;0.62;96.37;99761.69;1831839;77;21194;-69
2022/12/27 01:21:07;;;;;;;15.30;9.53;;;;;;;0.58;96.59;99740.17;1831747;78;21061;-68
2022/12/27 01:23:33;;;;;;;12.85;8.68;;;;;;;0.52;96.89;99740.12;1831737;78;21110;-68
2022/12/27 01:26:01;;;;;;;14.73;9.95;;;;;;;0.57;97.08;99736.70;1831606;78;21057;-69
2022/12/27 01:28:28;;;;;;;12.15;9.23;;;;;;;0.66;96.82;99735.73;1830387;78;21735;-68
2022/12/27 01:30:55;;;;;;;16.05;10.38;;;;;;;0.61;97.11;99730.80;1831774;78;21052;-69
2022/12/27 01:33:21;;;;;;;14.10;9.35;;;;;;;0.54;97.51;99713.40;1831603;78;21056;-71
2022/12/27 01:35:48;;;;;;;13.98;9.60;;;;;;;0.61;97.59;99714.28;1831796;78;21503;-70
2022/12/27 01:38:14;;;;;;;14.53;9.95;;;;;;;0.67;97.50;99704.22;1831927;78;21455;-71
2022/12/27 01:40:41;;;;;;;14.38;10.15;;;;;;;0.65;97.74;99705.28;1831674;78;21009;-69
2022/12/27 01:43:13;;;;;;;13.75;8.98;;;;;;;0.59;98.14;99710.45;1831963;77;21072;-70
2022/12/27 01:45:39;;;;;;;13.05;9.15;;;;;;;0.65;98.06;99693.52;1830671;77;21064;-69
2022/12/27 01:48:14;;;;;;;14.00;9.73;;;;;;;0.70;97.96;99683.10;1831466;78;21200;-70
2022/12/27 01:50:48;;;;;;;11.85;8.65;;;;;;;0.62;98.34;99678.89;1804244;78;21080;-70
2022/12/27 01:53:29;;;;;;;13.28;9.35;;;;;;;0.62;98.56;99700.25;1825556;78;21426;-70
2022/12/27 01:56:01;;;;;;;12.98;9.40;;;;;;;0.69;98.42;99668.83;1819490;77;21012;-70
2022/12/27 01:58:35;;;;;;;12.40;9.48;;;;;;;0.66;98.58;99666.44;1819525;78;21024;-70
2022/12/27 02:01:04;;;;;;;12.50;8.58;;;;;;;0.61;99.05;99677.67;1825615;78;21093;-70
2022/12/27 02:03:38;;;;;;;11.25;8.33;;;;;;;0.66;99.23;99663.83;1824206;78;20979;-70
2022/12/27 02:06:08;;;;;;;12.50;9.15;;;;;;;0.76;98.90;99664.84;1825572;78;21493;-70
2022/12/27 02:08:53;;;;;;;12.78;9.28;;;;;;;0.75;99.16;99659.23;1825773;78;21132;-71
2022/12/27 02:11:49;;;;;;;12.33;8.23;;;;;;;0.67;99.61;99649.80;1825597;78;21037;-69
2022/12/27 02:13:52;;;;;;;11.22;8.43;;;;;;;0.71;99.82;99640.31;1824919;78;21129;-72
2022/12/27 02:16:18;;;;;;;10.08;8.20;;;;;;;0.82;99.62;99653.13;1825519;78;21474;-70
2022/12/27 02:18:46;;;;;;;10.88;8.40;;;;;;;0.76;100.00;99637.39;1824311;78;21037;-71
2022/12/27 02:21:44;;;;;;;11.33;7.67;;;;;;;0.71;100.00;99631.64;1825482;78;21034;-71
2022/12/27 02:24:45;;;;;;;11.50;8.50;;;;;;;0.80;100.00;99636.22;1825600;78;21084;-70
2022/12/27 02:27:56;;;;;;;10.55;8.38;;;;;;;0.84;100.00;99616.75;1825068;78;21139;-71
2022/12/27 02:30:22;;;;;;;10.15;7.90;;;;;;;0.75;100.00;99614.78;1823927;77;21032;-72
2022/12/27 02:33:08;;;;;;;10.32;7.55;;;;;;;0.78;100.00;99598.41;1825806;78;21061;-70
2022/12/27 02:35:58;;;;;;;10.60;7.62;;;;;;;0.85;100.00;99603.20;1804530;77;21100;-70
2022/12/27 02:38:29;;;;;;;10.78;7.80;;;;;;;0.77;100.00;99599.82;1756424;80;21054;-71
2022/12/27 02:53:08;;;;;;;10.32;7.95;;;;;;;0.87;100.00;99585.61;1771968;80;21072;-71
2022/12/27 02:59:11;;;;;;;11.15;8.05;;;;;;;0.78;100.00;99563.10;1750137;80;21112;-72
2022/12/27 03:05:26;;;;;;;9.88;8.03;;;;;;;0.73;100.00;99561.77;1756683;81;21066;-72
2022/12/27 03:08:04;;;;;;;11.48;8.88;;;;;;;0.74;100.00;99559.52;1755977;81;20963;-73
2022/12/27 03:16:54;;;;;;;11.20;8.93;;;;;;;0.79;100.00;99570.47;1768849;80;21660;-70
2022/12/27 03:27:34;;;;;;;12.05;8.70;;;;;;;0.93;100.00;99559.04;1774078;80;21163;-70
2022/12/27 03:33:14;;;;;;;14.47;10.38;;;;;;;0.91;100.00;99539.53;1780633;80;21031;-71
2022/12/27 03:38:56;;;;;;;12.20;9.50;;;;;;;1.07;100.00;99544.95;1745536;80;21131;-71
2022/12/27 03:44:23;;;;;;;13.68;9.60;;;;;;;1.02;100.00;99536.59;1776746;80;21037;-73
2022/12/27 03:46:57;;;;;;;13.58;10.08;;;;;;;1.07;100.00;99562.78;1768397;80;21085;-70
2022/12/27 03:49:35;;;;;;;14.85;9.60;;;;;;;1.05;100.00;99550.77;1785848;80;21088;-71
2022/12/27 03:52:16;;;;;;;12.78;9.38;;;;;;;1.05;100.00;99537.20;1752373;81;21476;-70
2022/12/27 03:54:44;;;;;;;14.28;10.90;;;;;;;1.11;100.00;99531.52;1760518;80;21059;-70
2022/12/27 03:57:16;;;;;;;13.32;10.28;;;;;;;1.12;100.00;99524.05;1764374;80;21464;-71
2022/12/27 03:59:43;;;;;;;12.25;9.03;;;;;;;1.08;100.00;99517.83;1756576;80;21097;-70
2022/12/27 04:02:09;;;;;;;13.48;10.08;;;;;;;1.16;100.00;99518.94;1784438;80;21016;-69
2022/12/27 04:04:36;;;;;;;12.25;9.43;;;;;;;1.21;100.00;99498.14;1787701;80;21233;-69
2022/12/27 04:07:03;;;;;;;13.28;10.28;;;;;;;1.18;100.00;99501.83;1784645;80;21029;-70
2022/12/27 04:37:03;;;;;;;14.33;11.40;;;;;;;1.47;100.00;99469.98;1732680;81;21411;-67
2022/12/27 04:39:31;;;;;;;13.38;10.88;;;;;;;1.40;100.00;99471.42;1698129;83;21064;-68
2022/12/27 04:56:03;;;;;;;14.10;10.95;;;;;;;1.50;100.00;99443.58;1698492;83;21043;-71
2022/12/27 04:58:30;;;;;;;15.38;10.65;;;;;;;1.49;100.00;99445.86;1674708;84;21151;-71
2022/12/27 05:03:46;;;;;;;18.90;15.03;;;;;;;1.60;100.00;99457.63;1701305;83;21063;-72
2022/12/27 05:06:12;;;;;;;16.95;12.65;;;;;;;1.61;100.00;99459.80;1696710;83;21040;-70
2022/12/27 05:14:13;;;;;;;22.62;17.42;;;;;;;1.71;100.00;99469.91;1722650;83;21038;-70
2022/12/27 05:16:42;;;;;;;19.98;15.38;;;;;;;1.73;100.00;99460.14;1722867;83;21127;-71
2022/12/27 05:19:10;;;;;;;22.07;16.00;;;;;;;1.68;100.00;99462.28;1715288;83;21027;-72
2022/12/27 05:25:33;;;;;;;25.57;19.02;;;;;;;1.69;100.00;99465.27;1713217;83;21595;-71
2022/12/27 05:26:56;;;;;;;21.20;16.45;;;;;;;1.75;100.00;99465.61;1713372;83;21573;-70
2022/12/27 05:29:23;;;;;;;26.40;18.23;;;;;;;1.75;100.00;99459.55;1689300;84;21064;-71
2022/12/27 05:31:49;;;;;;;29.02;20.23;;;;;;;1.82;100.00;99468.61;1685771;84;21085;-70
2022/12/27 05:34:16;;;;;;;28.60;18.23;;;;;;;1.84;100.00;99473.73;1697216;84;21026;-70
2022/12/27 05:36:43;;;;;;;25.23;17.23;;;;;;;1.87;100.00;99464.31;1697259;83;21890;-70
2022/12/27 05:39:10;;;;;;;34.13;20.75;;;;;;;1.88;100.00;99467.30;1697100;83;21027;-70
2022/12/27 05:41:36;;;;;;;38.55;25.70;;;;;;;1.86;100.00;99475.76;1723277;83;21025;-70
2022/12/27 05:44:03;;;;;;;32.30;21.70;;;;;;;1.90;100.00;99451.81;1715524;83;21049;-72
2022/12/27 05:46:30;;;;;;;32.08;19.85;;;;;;;1.95;100.00;99452.30;1711732;83;21025;-72
2022/12/27 05:48:56;;;;;;;32.03;21.77;;;;;;;1.93;100.00;99445.48;1696559;83;21171;-72
2022/12/27 05:51:23;;;;;;;36.03;23.90;;;;;;;1.98;100.00;99446.45;1695409;83;21047;-71
2022/12/27 05:53:50;;;;;;;29.40;20.40;;;;;;;2.02;100.00;99447.39;1720463;82;21075;-72
2022/12/27 05:56:19;;;;;;;35.83;21.85;;;;;;;2.06;100.00;99447.50;1700738;83;21019;-72
2022/12/27 05:58:46;;;;;;;36.60;21.73;;;;;;;2.01;100.00;99452.75;1694228;83;21073;-71
2022/12/27 06:01:15;;;;;;;33.63;22.50;;;;;;;2.05;100.00;99455.48;1702093;83;21161;-66
2022/12/27 06:03:41;;;;;;;34.92;22.25;;;;;;;2.10;100.00;99447.61;1718344;83;21046;-67
2022/12/27 06:06:08;;;;;;;35.78;22.45;;;;;;;2.09;100.00;99452.52;1723322;83;21062;-67
2022/12/27 06:08:37;;;;;;;32.60;20.95;;;;;;;2.13;100.00;99454.42;1723190;83;21042;-68
2022/12/27 06:11:10;;;;;;;35.43;23.25;;;;;;;2.16;100.00;99451.55;1713798;83;21052;-69
2022/12/27 06:13:37;;;;;;;36.45;23.62;;;;;;;2.17;100.00;99451.91;1694675;83;21250;-69
2022/12/27 06:16:05;;;;;;;30.43;21.75;;;;;;;2.19;100.00;99458.34;1718917;83;21043;-69
2022/12/27 06:18:33;;;;;;;39.35;23.40;;;;;;;2.21;100.00;99448.58;1745916;82;21046;-68
2022/12/27 06:21:12;;;;;;;31.95;21.87;;;;;;;2.22;100.00;99462.02;1696316;83;21504;-66
2022/12/27 06:23:39;;;;;;;34.80;23.15;;;;;;;2.23;100.00;99460.59;1694712;83;21608;-67
2022/12/27 06:26:13;;;;;;;37.08;23.92;;;;;;;2.27;100.00;99455.95;1695621;83;21154;-68
2022/12/27 06:28:39;;;;;;;36.95;22.17;;;;;;;2.28;100.00;99460.22;1694731;83;22732;-69
2022/12/27 06:31:07;;;;;;;32.58;22.15;;;;;;;2.30;100.00;99466.20;1695625;83;21544;-68
2022/12/27 06:33:34;;;;;;;37.15;26.37;;;;;;;2.31;100.00;99461.30;1698135;83;21049;-69
2022/12/27 06:36:09;;;;;;;33.35;22.45;;;;;;;2.34;100.00;99473.69;1745827;82;21006;-66
2022/12/27 06:38:37;;;;;;;35.17;20.95;;;;;;;2.35;100.00;99470.58;1721113;82;22814;-66
2022/12/27 06:41:05;;;;;;;35.50;25.23;;;;;;;2.35;100.00;99464.02;1720008;83;21119;-65
2022/12/27 06:43:33;;;;;;;40.92;27.70;;;;;;;2.41;100.00;99459.59;1727138;82;21081;-66
2022/12/27 06:46:01;;;;;;;34.78;21.68;;;;;;;2.44;100.00;99466.41;1749949;82;21533;-68
2022/12/27 06:48:28;;;;;;;33.85;22.07;;;;;;;2.44;100.00;99466.41;1718104;82;21500;-65
2022/12/27 06:50:55;;;;;;;31.62;20.95;;;;;;;2.47;100.00;99457.82;1710362;83;21146;-66
2022/12/27 06:53:21;;;;;;;40.43;26.45;;;;;;;2.49;100.00;99453.28;1710440;83;21513;-67
2022/12/27 06:55:48;;;;;;;35.10;25.35;;;;;;;2.54;100.00;99456.34;1694503;84;21040;-69
2022/12/27 06:58:14;;;;;;;34.10;23.42;;;;;;;2.56;100.00;99457.54;1714125;83;21073;-67
2022/12/27 07:00:42;;;;;;;38.28;23.92;;;;;;;2.53;100.00;99459.09;1700733;83;21065;-68
2022/12/27 07:03:08;;;;;;;33.35;22.37;;;;;;;2.58;100.00;99467.42;1723495;83;21909;-66
2022/12/27 07:05:35;;;;;;;35.95;23.40;;;;;;;2.63;100.00;99464.45;1722704;83;21014;-67
2022/12/27 07:08:01;;;;;;;35.55;22.50;;;;;;;2.68;100.00;99467.52;1736750;82;21191;-66
2022/12/27 07:10:29;;;;;;;36.28;24.30;;;;;;;2.73;100.00;99460.12;1713079;83;21344;-67
2022/12/27 07:12:56;;;;;;;34.00;22.27;;;;;;;2.77;100.00;99457.59;1723495;83;21066;-66
2022/12/27 07:15:23;;;;;;;37.85;23.92;;;;;;;2.81;100.00;99456.87;1748004;81;21136;-69
2022/12/27 07:17:50;;;;;;;39.50;23.02;;;;;;;2.87;100.00;99453.25;1749959;82;21549;-73
2022/12/27 07:20:17;;;;;;;42.83;25.08;;;;;;;2.91;100.00;99448.09;1749914;82;21522;-68
2022/12/27 07:22:43;;;;;;;36.48;23.50;;;;;;;2.98;100.00;99447.62;1750090;82;21018;-67
2022/12/27 07:25:09;;;;;;;47.00;27.37;;;;;;;3.04;100.00;99449.73;1734582;82;21033;-67
2022/12/27 07:27:36;;;;;;;42.80;25.25;;;;;;;3.10;100.00;99447.41;1748016;82;22136;-66
2022/12/27 07:30:04;;;;;;;40.60;22.93;;;;;;;3.08;100.00;99453.77;1723489;83;21197;-67
2022/12/27 07:32:31;;;;;;;39.55;23.35;;;;;;;3.13;100.00;99447.66;1723360;83;21050;-67
2022/12/27 07:34:58;;;;;;;35.45;23.60;;;;;;;3.19;100.00;99439.27;1723616;83;21054;-66
2022/12/27 07:37:25;;;;;;;32.80;23.62;;;;;;;3.19;100.00;99448.45;1750110;82;21065;-66
2022/12/27 07:39:52;;;;;;;32.10;21.37;;;;;;;3.19;100.00;99448.45;1750292;81;21522;-67
2022/12/27 07:42:18;;;;;;;34.67;21.65;;;;;;;3.28;100.00;99438.50;1746912;82;21574;-67
2022/12/27 07:44:44;;;;;;;29.75;21.23;;;;;;;3.32;100.00;99430.72;1747219;82;21004;-66
2022/12/27 07:47:11;;;;;;;30.97;19.77;;;;;;;3.45;100.00;99433.61;1720431;83;21093;-67
2022/12/27 07:49:37;;;;;;;30.82;21.27;;;;;;;3.45;100.00;99433.61;1720199;83;21124;-66
2022/12/27 07:52:04;;;;;;;34.73;22.25;;;;;;;3.56;100.00;99436.16;1720305;83;21783;-67
2022/12/27 07:54:32;;;;;;;30.72;20.60;;;;;;;3.56;100.00;99436.16;1720089;83;21109;-66
2022/12/27 07:56:59;;;;;;;30.95;20.45;;;;;;;3.60;100.00;99432.30;1723666;83;21533;-67
2022/12/27 07:59:28;;;;;;;29.92;21.50;;;;;;;3.74;100.00;99431.12;1707769;81;21069;-67
2022/12/27 08:02:04;;;;;;;29.37;21.07;;;;;;;3.74;100.00;99431.12;1743261;82;21021;-66
2022/12/27 08:04:34;;;;;;;37.42;23.90;;;;;;;3.74;100.00;99444.25;1777295;80;21790;-67
2022/12/27 08:07:15;;;;;;;35.83;23.87;;;;;;;3.84;100.00;99436.41;1760360;80;21060;-67
2022/12/27 08:09:43;;;;;;;33.23;23.18;;;;;;;3.84;100.00;99436.41;1758882;81;21052;-67
2022/12/27 08:12:12;;;;;;;45.60;27.80;;;;;;;3.84;100.00;99432.47;1692470;83;21078;-67
2022/12/27 08:14:39;;;;;;;43.00;25.68;;;;;;;3.83;100.00;99438.70;1692553;84;21093;-67
2022/12/27 08:17:19;;;;;;;40.28;26.35;;;;;;;3.92;100.00;99436.57;1702838;83;21131;-67
2022/12/27 08:19:46;;;;;;;37.53;22.48;;;;;;;4.00;100.00;99445.96;1720212;81;21057;-67
2022/12/27 08:22:13;;;;;;;35.52;21.60;;;;;;;4.02;100.00;99439.23;1706438;82;21081;-67
2022/12/27 08:24:40;;;;;;;33.35;22.02;;;;;;;4.01;100.00;99435.78;1722806;83;21076;-67
2022/12/27 08:27:07;;;;;;;32.53;22.42;;;;;;;4.09;100.00;99429.86;1722453;81;21017;-66
2022/12/27 08:29:33;;;;;;;36.45;24.12;;;;;;;4.09;100.00;99428.05;1723035;81;21139;-67
2022/12/27 08:32:00;;;;;;;32.90;22.87;;;;;;;4.02;100.00;99436.14;1725870;81;21053;-67
2022/12/27 08:34:26;;;;;;;36.63;24.15;;;;;;;4.07;100.00;99435.73;1741877;81;21059;-68
2022/12/27 08:36:53;;;;;;;33.73;23.12;;;;;;;4.08;100.00;99430.84;1777293;80;21084;-68
2022/12/27 08:39:19;;;;;;;33.88;23.77;;;;;;;4.02;100.00;99437.46;1765311;80;21036;-67
2022/12/27 08:41:46;;;;;;;32.40;22.75;;;;;;;4.06;100.00;99432.28;1758941;81;21259;-68
2022/12/27 08:44:12;;;;;;;34.25;22.90;;;;;;;4.10;100.00;99440.73;1692259;83;21022;-68
2022/12/27 08:46:39;;;;;;;38.88;25.35;;;;;;;4.11;100.00;99435.34;1708997;83;21114;-67
2022/12/27 08:49:06;;;;;;;38.98;25.35;;;;;;;4.07;100.00;99434.41;1776468;80;21500;-68
2022/12/27 08:51:32;;;;;;;36.38;24.35;;;;;;;4.10;100.00;99431.53;1775215;80;21443;-66
2022/12/27 08:53:59;;;;;;;39.05;25.65;;;;;;;4.18;100.00;99426.42;1771814;81;21191;-67
2022/12/27 08:56:27;;;;;;;40.03;26.20;;;;;;;4.22;100.00;99420.42;1722689;83;21028;-68
2022/12/27 08:58:54;;;;;;;39.25;23.87;;;;;;;4.17;100.00;99408.15;1725372;81;21040;-68
2022/12/27 09:01:21;;;;;;;39.20;24.57;;;;;;;4.16;100.00;99402.06;1725915;81;21006;-68
2022/12/27 09:03:47;;;;;;;35.80;23.07;;;;;;;4.25;100.00;99400.41;1708394;83;21572;-68
2022/12/27 09:09:05;;;;;;;41.33;24.15;;;;;;;4.28;100.00;99387.83;1716852;81;21080;-68
2022/12/27 09:11:32;;;;;;;36.00;24.85;;;;;;;4.33;100.00;99373.80;1711379;82;21120;-68
2022/12/27 09:14:02;;;;;;;38.23;24.82;;;;;;;4.46;100.00;99367.42;1711700;82;21883;-68
2022/12/27 09:16:29;;;;;;;39.48;25.57;;;;;;;4.48;100.00;99372.91;1751220;81;21041;-67
2022/12/27 09:18:57;;;;;;;36.75;23.27;;;;;;;4.48;100.00;99366.80;1752708;81;22437;-67
2022/12/27 09:21:28;;;;;;;32.28;22.70;;;;;;;4.56;100.00;99362.16;1752698;81;21033;-67
2022/12/27 09:23:54;;;;;;;32.55;22.62;;;;;;;4.70;100.00;99367.02;1754133;80;21076;-68
2022/12/27 09:26:23;;;;;;;37.33;24.40;;;;;;;4.75;100.00;99356.06;1761019;81;21034;-67
2022/12/27 09:28:52;;;;;;;35.10;24.37;;;;;;;4.77;100.00;99365.50;1722335;83;21040;-67
2022/12/27 09:31:19;;;;;;;37.60;24.47;;;;;;;4.82;100.00;99359.31;1724993;83;21213;-67
2022/12/27 09:33:46;;;;;;;35.30;23.42;;;;;;;4.91;100.00;99357.64;1702324;84;21056;-67
2022/12/27 09:36:15;;;;;;;37.23;25.10;;;;;;;4.97;100.00;99364.97;1702351;84;21081;-67
2022/12/27 09:38:41;;;;;;;33.05;23.47;;;;;;;4.95;100.00;99360.83;1702288;84;21105;-67
2022/12/27 09:41:36;;;;;;;40.48;25.45;;;;;;;4.98;100.00;99372.38;1693065;84;21073;-69
2022/12/27 09:44:37;;;;;;;38.78;25.20;;;;;;;5.03;100.00;99366.22;1672466;85;21969;-67
2022/12/27 09:47:21;;;;;;;32.30;21.02;;;;;;;5.00;100.00;99368.63;1673593;85;20990;-67
2022/12/27 09:50:02;;;;;;;;;;;;;;;5.04;100.00;99371.34;1676346;85;21032;-67
2022/12/27 09:52:34;;;;;;;34.63;23.18;;;;;;;5.12;100.00;99377.22;1673927;85;20168;-67
2022/12/27 09:55:20;;;;;;;39.15;25.52;;;;;;;5.07;100.00;99375.48;1674047;85;20979;-68
2022/12/27 09:57:47;;;;;;;35.52;23.47;;;;;;;5.05;100.00;99372.16;1678888;82;21163;-68
2022/12/27 10:00:19;;;;;;;38.63;24.63;;;;;;;5.09;100.00;99374.36;1702071;84;21091;-68
2022/12/27 10:02:46;;;;;;;34.48;22.82;;;;;;;5.04;100.00;99366.08;1702427;84;21047;-67
2022/12/27 10:05:23;;;;;;;39.23;26.07;;;;;;;5.04;100.00;99367.39;1702067;84;21046;-67
2022/12/27 10:08:10;;;;;;;40.35;26.02;;;;;;;5.11;100.00;99363.70;1701809;84;21043;-66
2022/12/27 10:11:34;;;;;;;41.08;26.95;;;;;;;5.11;100.00;99361.88;1701471;84;21143;-67
2022/12/27 10:13:47;;;;;;;39.55;24.50;;;;;;;5.11;100.00;99367.64;1697828;84;21058;-68
2022/12/27 10:16:37;;;;;;;40.95;27.17;;;;;;;5.17;100.00;99364.92;1702701;82;21542;-67
2022/12/27 10:19:51;;;;;;;40.92;25.12;;;;;;;5.12;100.00;99362.73;1701968;84;21055;-67
2022/12/27 10:22:40;;;;;;;35.73;23.80;;;;;;;5.09;100.00;99369.09;1686593;84;21583;-67
2022/12/27 10:25:12;;;;;;;45.12;26.95;;;;;;;5.14;100.00;99370.00;1701748;84;21070;-67
2022/12/27 10:27:38;;;;;;;38.58;23.92;;;;;;;5.08;100.00;99357.38;1702343;84;21071;-68
2022/12/27 10:30:08;;;;;;;39.30;23.92;;;;;;;5.03;100.00;99360.45;1702189;84;21034;-68
2022/12/27 10:32:34;;;;;;;38.60;26.02;;;;;;;5.05;100.00;99364.27;1696372;82;21078;-67
2022/12/27 10:35:01;;;;;;;40.75;25.48;;;;;;;5.05;100.00;99358.50;1702304;84;21526;-68
2022/12/27 10:37:28;;;;;;;37.93;23.87;;;;;;;5.00;100.00;99366.48;1702167;84;21746;-67
2022/12/27 10:39:58;;;;;;;36.80;23.07;;;;;;;5.01;100.00;99360.26;1702021;84;21058;-67
2022/12/27 10:42:58;;;;;;;31.80;21.27;;;;;;;5.12;100.00;99354.84;1702521;84;21081;-65
2022/12/27 10:45:33;;;;;;;33.70;21.42;;;;;;;5.17;100.00;99352.58;1702083;84;21574;-67
2022/12/27 10:48:25;;;;;;;34.40;22.37;;;;;;;5.18;100.00;99354.26;1702440;84;21105;-68
2022/12/27 10:51:01;;;;;;;29.82;20.52;;;;;;;5.28;100.00;99355.05;1673796;85;22171;-67
2022/12/27 10:53:36;;;;;;;32.15;22.10;;;;;;;5.43;100.00;99344.06;1698610;84;21062;-67
2022/12/27 10:56:25;;;;;;;32.95;20.82;;;;;;;5.46;100.00;99335.85;1702175;84;21475;-67
2022/12/27 10:59:11;;;;;;;29.32;19.75;;;;;;;5.45;100.00;99339.48;1702077;84;21034;-67
2022/12/27 11:01:38;;;;;;;30.02;21.55;;;;;;;5.57;100.00;99340.12;1702128;84;21015;-67
2022/12/27 11:04:22;;;;;;;32.48;21.37;;;;;;;5.64;100.00;99330.63;1702271;84;21118;-68
2022/12/27 11:07:37;;;;;;;36.30;22.57;;;;;;;5.68;100.00;99317.03;1856833;76;24961;-68
2022/12/27 11:10:14;;;;;;;32.53;22.07;;;;;;;5.74;100.00;99325.30;1842123;77;20996;-67
2022/12/27 11:13:01;;;;;;;35.73;23.67;;;;;;;5.81;100.00;99326.39;1858263;77;21086;-68
2022/12/27 11:15:39;;;;;;;33.70;23.42;;;;;;;5.79;100.00;99326.53;1860426;77;20962;-68
2022/12/27 11:18:18;;;;;;;36.98;24.35;;;;;;;5.80;100.00;99317.66;1860277;77;20925;-67
2022/12/27 11:20:50;;;;;;;39.70;24.52;;;;;;;5.86;100.00;99318.38;1860195;77;21047;-68
2022/12/27 11:23:22;;;;;;;31.02;21.07;;;;;;;5.87;100.00;99323.16;1857115;77;20901;-66
2022/12/27 11:26:01;;;;;;;34.08;22.15;;;;;;;5.84;100.00;99326.10;1860436;77;21077;-68
2022/12/27 11:28:41;;;;;;;39.55;26.23;;;;;;;5.89;100.00;99313.28;1859257;77;20913;-66
2022/12/27 11:31:17;;;;;;;45.05;28.60;;;;;;;5.89;100.00;99320.73;1860220;77;21020;-67
2022/12/27 11:33:53;;;;;;;50.78;31.05;;;;;;;5.83;100.00;99321.80;1827335;77;21000;-68
2022/12/27 11:36:30;;;;;;;46.50;30.05;;;;;;;5.85;100.00;99319.84;1860428;77;20985;-68
2022/12/27 11:38:57;;;;;;;46.08;30.25;;;;;;;5.85;100.00;99311.93;1831671;77;21077;-67
2022/12/27 11:41:41;;;;;;;45.40;28.92;;;;;;;5.84;100.00;99315.06;1826654;77;21064;-68
2022/12/27 11:44:11;;;;;;;;;;;;;;;5.80;100.00;99307.61;1821764;77;21108;-68
2022/12/27 11:46:43;;;;;;;48.23;28.55;;;;;;;5.81;100.00;99308.75;1854203;77;20161;-67
2022/12/27 11:49:23;;;;;;;40.83;28.05;;;;;;;5.82;100.00;99308.29;1860164;77;21013;-70
2022/12/27 11:52:16;;;;;;;41.80;27.13;;;;;;;5.82;100.00;99310.92;1860218;77;21822;-69
2022/12/27 11:55:01;;;;;;;42.53;26.27;;;;;;;5.78;100.00;99322.75;1860237;77;21980;-68
2022/12/27 11:58:14;;;;;;;50.78;29.05;;;;;;;5.70;100.00;99328.75;1858939;77;21043;-68
2022/12/27 12:01:04;;;;;;;47.27;28.57;;;;;;;5.68;100.00;99328.07;1854410;77;21016;-68
2022/12/27 12:04:07;;;;;;;44.18;27.13;;;;;;;5.65;100.00;99338.89;1812975;79;20988;-67
2022/12/27 12:06:58;;;;;;;43.05;26.73;;;;;;;5.57;100.00;99339.63;1789775;77;21198;-68
2022/12/27 12:09:51;;;;;;;44.85;27.70;;;;;;;5.56;100.00;99335.31;1814596;79;21512;-68
2022/12/27 12:12:46;;;;;;;44.85;27.67;;;;;;;5.54;100.00;99323.27;1850326;77;21000;-68
2022/12/27 12:15:25;;;;;;;44.38;27.80;;;;;;;5.47;100.00;99320.41;1833164;77;21009;-68
2022/12/27 12:18:18;;;;;;;44.80;28.32;;;;;;;5.50;100.00;99314.36;1830637;77;21024;-68
2022/12/27 12:21:25;;;;;;;43.17;25.77;;;;;;;5.53;100.00;99322.94;1839046;77;21086;-68
2022/12/27 12:24:48;;;;;;;45.78;27.13;;;;;;;5.50;100.00;99326.68;1848509;75;20977;-68
2022/12/27 12:27:41;;;;;;;47.90;29.52;;;;;;;5.56;100.00;99330.05;1849857;77;21477;-68
2022/12/27 12:30:32;;;;;;;43.10;26.80;;;;;;;5.48;100.00;99326.00;1855100;77;20977;-68
2022/12/27 12:33:16;;;;;;;40.08;24.40;;;;;;;5.49;100.00;99327.17;1850745;77;21024;-69
2022/12/27 12:35:49;;;;;;;;;;;;;;;5.51;100.00;99327.86;1828563;77;21093;-69
2022/12/27 12:38:33;;;;;;;37.90;25.08;;;;;;;5.46;100.00;99331.91;1854776;77;20134;-67
2022/12/27 12:41:15;;;;;;;40.60;24.90;;;;;;;5.42;100.00;99332.67;1809175;77;20984;-68
2022/12/27 12:44:05;;;;;;;39.70;24.72;;;;;;;5.48;100.00;99324.19;1858988;77;21044;-68
2022/12/27 12:46:39;;;;;;;40.50;26.35;;;;;;;5.50;100.00;99317.45;1853606;77;21004;-73
2022/12/27 12:49:48;;;;;;;46.85;26.07;;;;;;;5.46;100.00;99321.36;1847158;77;22499;-71
2022/12/27 12:52:55;;;;;;;44.50;27.13;;;;;;;5.46;100.00;99327.95;1854766;77;20974;-72
2022/12/27 12:55:39;;;;;;;44.45;26.57;;;;;;;5.51;100.00;99329.17;1844829;77;21059;-71
2022/12/27 12:58:42;;;;;;;44.48;26.42;;;;;;;5.46;100.00;99335.85;1851507;77;20989;-70
2022/12/27 13:01:36;;;;;;;39.98;24.30;;;;;;;5.51;100.00;99335.77;1847603;77;21017;-70
2022/12/27 13:04:31;;;;;;;41.30;25.43;;;;;;;5.55;100.00;99332.35;1836720;77;21266;-71
2022/12/27 13:07:53;;;;;;;37.30;23.67;;;;;;;5.48;100.00;99329.95;1848300;77;21012;-71
2022/12/27 13:11:02;;;;;;;37.83;21.90;;;;;;;5.53;100.00;99333.48;1851507;77;21053;-71
2022/12/27 13:14:02;;;;;;;31.10;20.30;;;;;;;5.56;100.00;99333.99;1801716;78;21068;-71
2022/12/27 13:16:34;;;;;;;31.77;20.12;;;;;;;5.53;100.00;99340.07;1805240;79;21084;-72
2022/12/27 13:19:29;;;;;;;29.37;19.65;;;;;;;5.50;100.00;99336.75;1804865;79;21381;-71
2022/12/27 13:22:18;;;;;;;30.35;20.43;;;;;;;5.54;100.00;99343.86;1814126;78;20997;-71
2022/12/27 13:25:34;;;;;;;29.98;20.23;;;;;;;5.56;100.00;99339.77;1811374;79;21001;-71
2022/12/27 13:28:31;;;;;;;35.05;21.65;;;;;;;5.49;100.00;99339.53;1811392;79;20978;-71
2022/12/27 13:31:02;;;;;;;33.50;20.82;;;;;;;5.51;100.00;99336.26;1796236;79;21029;-70
2022/12/27 13:33:59;;;;;;;30.27;20.60;;;;;;;5.51;100.00;99336.26;1810144;79;21227;-70